Time;durP1;ratioP1;P1;durP2;ratioP2;P2;SDS_P1;SDS_P2;PMS_P1;PMS_P2;Temp;Humidity;BMP_temperature;BMP_pressure;BME280_temperature;BME280_humidity;BME280_pressure;Samples;Min_cycle;Max_cycle;Signal;HPM_P1;HPM_P2
2022/03/02 00:00:32;;;;;;;2.90;2.17;;;-0.70;85.70;;;;;;5051436;28;20581;-46
2022/03/02 00:02:58;;;;;;;2.70;1.80;;;-0.70;85.60;;;;;;5051521;28;20884;-45
2022/03/02 00:05:27;;;;;;;2.30;1.50;;;-0.60;85.50;;;;;;5051155;28;21043;-49
2022/03/02 00:07:54;;;;;;;2.37;1.73;;;-0.90;85.10;;;;;;5050798;28;20448;-48
2022/03/02 00:10:23;;;;;;;2.83;2.50;;;-0.70;86.70;;;;;;5051252;28;20448;-46
2022/03/02 00:12:50;;;;;;;1.77;1.40;;;-0.70;86.40;;;;;;5051525;28;20467;-46
2022/03/02 00:15:17;;;;;;;1.83;1.73;;;-0.50;86.10;;;;;;5051763;28;20551;-46
2022/03/02 00:17:44;;;;;;;1.50;1.33;;;-0.40;86.10;;;;;;5051641;28;20893;-49
2022/03/02 00:20:12;;;;;;;1.43;1.33;;;-0.40;85.50;;;;;;5051039;28;20904;-47
2022/03/02 00:22:39;;;;;;;1.43;1.30;;;-0.30;85.50;;;;;;5051119;28;20506;-46
2022/03/02 00:25:06;;;;;;;1.40;1.30;;;-0.20;85.50;;;;;;5051495;28;21012;-47
2022/03/02 00:27:35;;;;;;;2.30;1.57;;;-0.10;85.50;;;;;;5051054;28;20502;-47
2022/03/02 00:30:03;;;;;;;1.60;1.50;;;0.00;85.30;;;;;;5051241;28;20479;-46
2022/03/02 00:32:30;;;;;;;1.70;1.60;;;-0.30;86.00;;;;;;5050772;28;20444;-46
2022/03/02 00:34:57;;;;;;;2.30;1.60;;;-0.20;84.80;;;;;;5100297;22;20514;-51
2022/03/02 00:37:24;;;;;;;5.13;2.00;;;-0.20;85.40;;;;;;5073281;28;20955;-53
2022/03/02 00:39:50;;;;;;;1.97;1.70;;;-0.30;84.80;;;;;;5073375;28;20498;-51
2022/03/02 00:42:17;;;;;;;1.50;1.23;;;-0.40;84.80;;;;;;5074206;28;20484;-51
2022/03/02 00:44:46;;;;;;;2.57;1.63;;;-0.50;85.90;;;;;;5073870;28;20470;-51
2022/03/02 00:47:13;;;;;;;2.60;1.60;;;-0.50;86.60;;;;;;5073766;28;20483;-51
2022/03/02 00:49:40;;;;;;;2.03;0.83;;;-0.60;85.40;;;;;;5073937;28;20473;-51
2022/03/02 00:52:10;;;;;;;1.97;1.60;;;-0.50;85.30;;;;;;5073714;28;20475;-51
2022/03/02 00:54:37;;;;;;;1.40;1.30;;;-0.50;86.30;;;;;;5073557;28;20926;-53
2022/03/02 00:57:04;;;;;;;3.07;1.77;;;-0.90;85.30;;;;;;5074105;28;20483;-51
2022/03/02 00:59:31;;;;;;;2.47;1.63;;;-1.00;84.90;;;;;;5073432;28;20469;-52
2022/03/02 01:02:00;;;;;;;1.83;1.50;;;-0.80;85.80;;;;;;5073126;28;20559;-52
2022/03/02 01:04:27;;;;;;;1.30;1.20;;;-0.70;87.20;;;;;;5073945;28;20472;-51
2022/03/02 01:06:54;;;;;;;1.77;1.67;;;-0.60;87.80;;;;;;5073480;28;20497;-53
2022/03/02 01:09:21;;;;;;;2.00;1.43;;;-0.60;87.60;;;;;;5072908;28;20486;-51
2022/03/02 01:11:48;;;;;;;1.77;1.30;;;-0.60;88.00;;;;;;5073067;28;20949;-51
2022/03/02 01:14:15;;;;;;;4.13;1.70;;;-0.60;87.60;;;;;;5073163;28;20481;-51
2022/03/02 01:16:42;;;;;;;1.30;1.20;;;-0.60;86.80;;;;;;5073396;28;20505;-50
2022/03/02 01:19:11;;;;;;;1.70;1.53;;;-0.80;84.90;;;;;;5075141;28;20484;-50
2022/03/02 01:21:38;;;;;;;2.13;1.93;;;-0.80;85.40;;;;;;5076503;28;20580;-51
2022/03/02 01:24:05;;;;;;;1.53;1.33;;;-0.70;86.10;;;;;;5076635;28;20505;-51
2022/03/02 01:26:32;;;;;;;2.77;1.67;;;-0.70;87.00;;;;;;5076528;28;20498;-51
2022/03/02 01:28:59;;;;;;;2.90;1.77;;;-0.60;87.20;;;;;;5076464;28;20811;-52
2022/03/02 01:31:28;;;;;;;3.60;2.70;;;-0.60;85.80;;;;;;5075940;28;20440;-51
2022/03/02 01:33:55;;;;;;;4.93;2.40;;;-0.50;85.50;;;;;;5076907;28;20453;-51
2022/03/02 01:36:25;;;;;;;2.27;1.57;;;-0.60;85.60;;;;;;5076185;28;20904;-50
2022/03/02 01:38:52;;;;;;;1.87;1.67;;;-0.90;83.80;;;;;;5077473;28;20530;-51
2022/03/02 01:41:22;;;;;;;1.50;1.30;;;-1.00;84.30;;;;;;5075539;28;20861;-51
2022/03/02 01:43:50;;;;;;;3.60;1.43;;;-0.90;86.60;;;;;;5076360;28;20481;-52
2022/03/02 01:46:18;;;;;;;1.37;1.27;;;-0.90;87.10;;;;;;5076033;28;20506;-51
2022/03/02 01:48:45;;;;;;;4.97;1.87;;;-0.90;87.50;;;;;;5075749;28;20933;-52
2022/03/02 01:51:12;;;;;;;4.67;3.60;;;-0.80;86.90;;;;;;5075383;28;20524;-52
2022/03/02 01:53:41;;;;;;;2.77;2.13;;;-0.80;86.20;;;;;;5076086;28;20480;-52
2022/03/02 01:56:09;;;;;;;3.00;1.50;;;-0.70;85.90;;;;;;5075928;28;20491;-53
2022/03/02 01:58:36;;;;;;;1.40;1.30;;;-0.60;84.90;;;;;;5075456;28;20482;-51
2022/03/02 02:01:04;;;;;;;1.00;1.00;;;-0.60;84.40;;;;;;5075057;28;20509;-53
2022/03/02 02:03:32;;;;;;;1.70;1.60;;;-0.80;82.70;;;;;;5075788;28;20483;-52
2022/03/02 02:05:59;;;;;;;1.40;1.30;;;-1.20;82.40;;;;;;5076222;28;20495;-51
2022/03/02 02:08:27;;;;;;;1.30;1.20;;;-1.50;84.20;;;;;;5077370;28;20466;-52
2022/03/02 02:10:57;;;;;;;1.67;1.57;;;-1.90;85.70;;;;;;5076675;28;20442;-52
2022/03/02 02:13:24;;;;;;;1.50;1.40;;;-1.80;87.10;;;;;;5075603;28;20993;-52
2022/03/02 02:15:51;;;;;;;1.13;1.03;;;-1.50;88.80;;;;;;5075304;28;20872;-52
2022/03/02 02:18:18;;;;;;;1.10;1.00;;;-1.30;88.40;;;;;;5075157;28;20899;-53
2022/03/02 02:20:46;;;;;;;1.10;0.93;;;-1.30;85.60;;;;;;5075473;28;21058;-52
2022/03/02 02:23:14;;;;;;;1.60;1.37;;;-1.40;83.40;;;;;;5075907;28;20459;-52
2022/03/02 02:25:42;;;;;;;1.73;0.97;;;-1.50;83.70;;;;;;5075451;28;20498;-51
2022/03/02 02:28:10;;;;;;;1.40;1.17;;;-1.30;83.90;;;;;;5075384;28;20442;-51
2022/03/02 02:30:38;;;;;;;1.43;1.20;;;-1.40;84.40;;;;;;5074972;28;20453;-52
2022/03/02 02:33:05;;;;;;;1.53;1.03;;;-1.50;84.60;;;;;;5075551;28;20440;-52
2022/03/02 02:35:33;;;;;;;1.40;1.30;;;-1.40;85.80;;;;;;5075113;28;20504;-51
2022/03/02 02:38:01;;;;;;;1.33;1.10;;;-1.30;86.60;;;;;;5074966;28;20477;-50
2022/03/02 02:40:29;;;;;;;1.00;0.90;;;-1.20;86.60;;;;;;5074404;28;20444;-51
2022/03/02 02:42:56;;;;;;;1.30;1.20;;;-1.10;86.30;;;;;;5074723;28;20447;-51
2022/03/02 02:45:24;;;;;;;1.53;1.40;;;-1.00;86.40;;;;;;5075316;28;20875;-51
2022/03/02 02:47:54;;;;;;;1.90;1.20;;;-1.20;84.60;;;;;;5075397;28;20445;-52
2022/03/02 02:50:24;;;;;;;1.53;1.20;;;-1.80;83.90;;;;;;5074864;28;20436;-52
2022/03/02 02:52:52;;;;;;;1.40;1.30;;;-1.70;85.70;;;;;;5074248;28;20902;-53
2022/03/02 02:55:22;;;;;;;1.30;1.20;;;-1.50;86.40;;;;;;5073765;28;20495;-51
2022/03/02 02:57:50;;;;;;;1.23;1.13;;;-1.40;86.20;;;;;;5074386;28;20448;-51
2022/03/02 03:00:18;;;;;;;1.17;1.07;;;-1.30;85.50;;;;;;5074394;28;20935;-51
2022/03/02 03:02:47;;;;;;;2.80;1.70;;;-1.10;85.30;;;;;;5073871;28;20442;-52
2022/03/02 03:05:17;;;;;;;1.30;1.20;;;-1.10;83.60;;;;;;5073856;28;20457;-52
2022/03/02 03:07:44;;;;;;;1.63;1.33;;;-1.30;83.00;;;;;;5074559;28;20479;-50
2022/03/02 03:10:13;;;;;;;1.40;1.27;;;-1.20;84.40;;;;;;5073299;28;20957;-52
2022/03/02 03:12:42;;;;;;;2.00;1.70;;;-1.20;85.30;;;;;;5073095;28;20431;-52
2022/03/02 03:15:10;;;;;;;2.03;1.83;;;-1.10;84.80;;;;;;5073696;28;20498;-50
2022/03/02 03:17:37;;;;;;;1.73;1.23;;;-1.60;82.70;;;;;;5074668;28;20823;-54
2022/03/02 03:20:06;;;;;;;2.67;1.33;;;-1.70;84.50;;;;;;5074943;28;20481;-51
2022/03/02 03:22:33;;;;;;;1.40;1.30;;;-1.80;86.00;;;;;;5074475;28;20513;-51
2022/03/02 03:25:00;;;;;;;2.80;1.10;;;-2.20;86.70;;;;;;5073797;28;20492;-52
2022/03/02 03:27:27;;;;;;;1.00;0.90;;;-2.60;87.00;;;;;;5073427;28;20476;-51
2022/03/02 03:29:56;;;;;;;1.70;1.13;;;-2.70;88.00;;;;;;5073327;28;20453;-51
2022/03/02 03:32:23;;;;;;;1.07;1.00;;;-2.40;88.40;;;;;;5072505;28;21179;-51
2022/03/02 03:34:50;;;;;;;1.83;1.70;;;-2.10;87.80;;;;;;5072553;28;20474;-51
2022/03/02 03:37:17;;;;;;;1.40;1.30;;;-2.00;86.50;;;;;;5073288;28;20475;-50
2022/03/02 03:39:44;;;;;;;1.43;1.03;;;-1.80;87.00;;;;;;5072692;28;20464;-49
2022/03/02 03:42:11;;;;;;;1.30;1.20;;;-1.60;87.70;;;;;;5072285;28;21054;-52
2022/03/02 03:44:38;;;;;;;1.23;0.97;;;-1.40;87.40;;;;;;5072245;28;20533;-51
2022/03/02 03:47:07;;;;;;;1.10;0.97;;;-1.40;85.80;;;;;;5072896;28;20866;-50
2022/03/02 03:49:35;;;;;;;1.50;1.40;;;-1.30;85.10;;;;;;5072610;28;20534;-51
2022/03/02 03:52:02;;;;;;;2.30;1.00;;;-1.50;84.90;;;;;;5074069;28;20438;-53
2022/03/02 03:54:29;;;;;;;1.40;1.30;;;-1.90;85.20;;;;;;5074167;28;20473;-51
2022/03/02 03:56:56;;;;;;;2.63;1.37;;;-1.80;86.00;;;;;;5073297;28;20476;-53
2022/03/02 03:59:22;;;;;;;1.50;1.40;;;-1.60;86.20;;;;;;5072156;28;20481;-51
2022/03/02 04:01:49;;;;;;;1.13;1.03;;;-1.50;86.30;;;;;;5072202;28;20509;-51
2022/03/02 04:04:18;;;;;;;1.30;1.10;;;-1.30;85.90;;;;;;5072828;28;20465;-51
2022/03/02 04:06:45;;;;;;;1.03;1.03;;;-1.20;85.10;;;;;;5073042;28;20489;-52
2022/03/02 04:09:11;;;;;;;1.87;1.30;;;-1.10;84.90;;;;;;5072785;28;20447;-51
2022/03/02 04:11:39;;;;;;;0.97;0.97;;;-1.10;84.00;;;;;;5072217;28;20470;-51
2022/03/02 04:14:06;;;;;;;1.27;1.17;;;-1.10;83.50;;;;;;5072390;28;20813;-50
2022/03/02 04:16:33;;;;;;;1.60;1.00;;;-1.20;83.80;;;;;;5072194;28;20738;-51
2022/03/02 04:19:00;;;;;;;1.17;1.00;;;-1.40;82.10;;;;;;5072306;28;20886;-51
2022/03/02 04:21:28;;;;;;;1.07;0.97;;;-1.80;83.10;;;;;;5072166;28;20560;-53
2022/03/02 04:23:55;;;;;;;1.53;1.43;;;-1.60;84.20;;;;;;5072312;28;20474;-51
2022/03/02 04:26:22;;;;;;;1.43;0.87;;;-1.90;84.50;;;;;;5071925;28;20905;-52
2022/03/02 04:28:49;;;;;;;1.33;1.23;;;-1.80;85.80;;;;;;5071948;28;20484;-52
2022/03/02 04:31:16;;;;;;;1.10;1.00;;;-1.80;85.60;;;;;;5071683;28;20430;-53
2022/03/02 04:33:43;;;;;;;4.17;1.23;;;-2.10;85.10;;;;;;5073472;28;20479;-51
2022/03/02 04:36:10;;;;;;;0.90;0.90;;;-2.30;86.70;;;;;;5072533;28;20551;-52
2022/03/02 04:38:38;;;;;;;1.83;1.10;;;-2.10;86.90;;;;;;5071930;28;20809;-51
2022/03/02 04:41:05;;;;;;;1.13;0.80;;;-1.90;86.70;;;;;;5071934;28;20505;-51
2022/03/02 04:43:32;;;;;;;1.33;1.00;;;-2.30;84.00;;;;;;5072917;28;20445;-52
2022/03/02 04:46:00;;;;;;;2.67;1.40;;;-2.50;84.50;;;;;;5071818;28;20494;-51
2022/03/02 04:48:27;;;;;;;4.20;3.10;;;-2.30;85.90;;;;;;5071822;28;20468;-51
2022/03/02 04:50:54;;;;;;;2.70;2.33;;;-2.10;87.40;;;;;;5071707;28;20495;-52
2022/03/02 04:53:23;;;;;;;1.60;1.50;;;-1.90;88.40;;;;;;5074064;28;20473;-51
2022/03/02 04:55:52;;;;;;;2.00;1.90;;;-2.00;86.60;;;;;;5076109;28;20496;-50
2022/03/02 04:58:20;;;;;;;1.73;1.63;;;-1.90;87.50;;;;;;5075927;28;20457;-54
2022/03/02 05:00:46;;;;;;;2.40;1.50;;;-1.80;87.70;;;;;;5075454;28;20941;-51
2022/03/02 05:03:14;;;;;;;1.37;1.27;;;-1.70;86.90;;;;;;5075862;28;20508;-51
2022/03/02 05:05:41;;;;;;;1.90;1.60;;;-1.60;86.80;;;;;;5075841;28;20520;-53
2022/03/02 05:08:08;;;;;;;1.00;1.00;;;-1.60;86.10;;;;;;5075648;28;20527;-51
2022/03/02 05:10:35;;;;;;;0.80;0.80;;;-1.60;85.40;;;;;;5075316;28;20480;-59
2022/03/02 05:13:04;;;;;;;0.90;0.87;;;-1.50;85.40;;;;;;5075789;28;20465;-51
2022/03/02 05:15:31;;;;;;;2.60;2.10;;;-1.50;85.50;;;;;;5075651;28;20501;-53
2022/03/02 05:17:58;;;;;;;1.77;1.50;;;-1.50;85.70;;;;;;5075785;28;20445;-49
2022/03/02 05:20:26;;;;;;;1.60;1.20;;;-1.40;85.30;;;;;;5075230;28;20958;-50
2022/03/02 05:22:53;;;;;;;3.87;3.00;;;-1.30;85.30;;;;;;5075347;28;20499;-51
2022/03/02 05:25:19;;;;;;;3.73;3.43;;;-1.30;84.80;;;;;;5075253;28;20502;-51
2022/03/02 05:27:47;;;;;;;4.67;4.27;;;-1.30;84.90;;;;;;5075456;28;20478;-50
2022/03/02 05:30:15;;;;;;;8.00;7.30;;;-1.40;85.00;;;;;;5075301;28;20859;-52
2022/03/02 05:32:42;;;;;;;4.93;4.30;;;-1.40;84.80;;;;;;5074064;28;20469;-50
2022/03/02 05:35:10;;;;;;;2.53;2.33;;;-1.40;83.80;;;;;;5075453;28;20270;-51
2022/03/02 05:37:42;;;;;;;2.30;1.80;;;-1.50;84.90;;;;;;5075559;28;20441;-52
2022/03/02 05:40:11;;;;;;;2.10;1.90;;;-1.60;84.60;;;;;;5075549;28;20447;-51
2022/03/02 05:42:38;;;;;;;5.00;4.10;;;-1.60;85.20;;;;;;5075308;28;20542;-51
2022/03/02 05:45:07;;;;;;;3.50;3.20;;;-1.90;83.70;;;;;;5074701;28;21012;-51
2022/03/02 05:47:36;;;;;;;31.93;28.40;;;-2.10;84.90;;;;;;5074833;28;20942;-50
2022/03/02 05:50:04;;;;;;;6.40;5.90;;;-2.00;86.20;;;;;;5075248;28;20880;-51
2022/03/02 05:52:31;;;;;;;7.00;6.40;;;-2.00;86.90;;;;;;5075262;28;20965;-52
2022/03/02 05:54:58;;;;;;;9.10;8.03;;;-1.90;87.50;;;;;;5075006;28;20500;-50
2022/03/02 05:57:25;;;;;;;20.50;18.80;;;-1.80;87.10;;;;;;5075250;28;20471;-50
2022/03/02 05:59:52;;;;;;;8.30;7.70;;;-1.80;87.20;;;;;;5074467;28;20480;-52
2022/03/02 06:02:19;;;;;;;5.70;5.20;;;-1.80;86.40;;;;;;5075272;28;20472;-50
2022/03/02 06:04:48;;;;;;;5.67;5.20;;;-1.80;85.50;;;;;;5073868;28;20470;-51
2022/03/02 06:07:15;;;;;;;6.90;4.70;;;-1.90;85.90;;;;;;5075376;28;20449;-51
2022/03/02 06:09:42;;;;;;;3.43;3.13;;;-1.90;87.30;;;;;;5074786;28;20458;-54
2022/03/02 06:12:10;;;;;;;4.10;3.70;;;-1.90;87.20;;;;;;5075390;28;20480;-51
2022/03/02 06:14:38;;;;;;;3.50;3.30;;;-1.80;87.50;;;;;;5074354;28;20468;-51
2022/03/02 06:17:06;;;;;;;3.50;2.50;;;-1.80;87.40;;;;;;5074499;28;20479;-51
2022/03/02 06:19:34;;;;;;;3.80;2.90;;;-1.70;86.80;;;;;;5074377;28;20475;-53
2022/03/02 06:22:04;;;;;;;3.63;2.80;;;-1.70;86.40;;;;;;5074220;28;20509;-54
2022/03/02 06:24:32;;;;;;;5.67;3.90;;;-1.50;86.30;;;;;;5075105;28;20481;-52
2022/03/02 06:26:59;;;;;;;6.20;4.30;;;-1.40;86.60;;;;;;5074046;28;20673;-51
2022/03/02 06:29:26;;;;;;;2.80;2.10;;;-1.40;85.30;;;;;;5073632;28;20533;-52
2022/03/02 06:31:53;;;;;;;6.27;2.70;;;-2.10;84.40;;;;;;5074055;28;20473;-51
2022/03/02 06:34:20;;;;;;;2.80;2.23;;;-2.60;85.80;;;;;;5074151;28;20489;-52
2022/03/02 06:36:50;;;;;;;2.87;2.50;;;-2.50;86.80;;;;;;5074920;28;20519;-49
2022/03/02 06:39:20;;;;;;;2.30;2.10;;;-2.30;87.20;;;;;;5073495;28;20452;-51
2022/03/02 06:41:57;;;;;;;3.70;2.10;;;-2.30;86.50;;;;;;5073206;28;20473;-51
2022/03/02 06:44:28;;;;;;;1.83;1.73;;;-2.10;88.20;;;;;;5074151;28;20444;-50
2022/03/02 06:47:03;;;;;;;2.20;2.00;;;-1.90;88.50;;;;;;5073573;28;20504;-51
2022/03/02 06:49:37;;;;;;;2.60;1.90;;;-1.80;87.40;;;;;;5073387;28;20446;-51
2022/03/02 06:52:06;;;;;;;4.87;3.03;;;-1.70;86.60;;;;;;5073479;28;20945;-50
2022/03/02 06:54:34;;;;;;;3.10;2.70;;;-1.60;88.00;;;;;;5073343;28;20450;-50
2022/03/02 06:57:03;;;;;;;2.70;2.50;;;-1.50;88.40;;;;;;5073763;28;20450;-50
2022/03/02 06:59:35;;;;;;;2.50;2.30;;;-1.50;87.90;;;;;;5073457;28;20446;-50
2022/03/02 07:02:04;;;;;;;2.63;2.00;;;-1.40;87.50;;;;;;5073666;28;20570;-51
2022/03/02 07:04:38;;;;;;;2.23;1.67;;;-1.40;86.60;;;;;;5072835;28;20477;-50
2022/03/02 07:07:05;;;;;;;3.37;2.60;;;-1.40;86.80;;;;;;5073237;28;20540;-50
2022/03/02 07:09:34;;;;;;;1.70;1.60;;;-1.40;86.60;;;;;;5073409;28;20494;-50
2022/03/02 07:12:02;;;;;;;1.73;1.50;;;-1.70;85.70;;;;;;5073887;28;20472;-50
2022/03/02 07:14:30;;;;;;;1.87;1.77;;;-2.20;86.00;;;;;;5073742;28;20808;-51
2022/03/02 07:16:59;;;;;;;2.20;2.10;;;-2.50;86.60;;;;;;5073094;28;20479;-49
2022/03/02 07:19:26;;;;;;;3.00;2.15;;;-2.30;87.80;;;;;;5072030;28;20477;-50
2022/03/02 07:21:53;;;;;;;2.90;2.00;;;-2.00;89.50;;;;;;5072695;28;20702;-49
2022/03/02 07:24:23;;;;;;;1.50;1.40;;;-1.80;88.90;;;;;;5073017;28;20481;-51
2022/03/02 07:26:54;;;;;;;1.90;1.70;;;-1.70;88.30;;;;;;5072946;28;20544;-50
2022/03/02 07:29:23;;;;;;;4.50;2.10;;;-1.60;87.90;;;;;;5073156;28;20476;-49
2022/03/02 07:31:51;;;;;;;5.23;2.40;;;-1.60;88.10;;;;;;5072508;28;20470;-49
2022/03/02 07:34:19;;;;;;;3.13;2.37;;;-1.60;88.70;;;;;;5072859;28;20532;-51
2022/03/02 07:36:46;;;;;;;3.33;2.07;;;-1.50;89.10;;;;;;5072565;28;20504;-50
2022/03/02 07:39:13;;;;;;;4.37;2.20;;;-1.50;88.40;;;;;;5072220;28;20444;-50
2022/03/02 07:41:41;;;;;;;6.00;2.50;;;-1.40;87.80;;;;;;5071863;28;20905;-50
2022/03/02 07:44:10;;;;;;;2.63;2.00;;;-1.40;86.80;;;;;;5072274;28;20618;-49
2022/03/02 07:46:37;;;;;;;2.10;1.97;;;-1.40;87.10;;;;;;5072054;28;20494;-50
2022/03/02 07:49:05;;;;;;;1.60;1.50;;;-1.40;86.10;;;;;;5071973;28;20506;-51
2022/03/02 07:51:35;;;;;;;1.53;1.33;;;-1.30;85.60;;;;;;5072397;28;20507;-50
2022/03/02 07:54:05;;;;;;;1.80;1.60;;;-1.60;84.90;;;;;;5072499;28;20481;-50
2022/03/02 07:56:33;;;;;;;2.20;1.83;;;-1.60;85.50;;;;;;5072643;28;20493;-50
2022/03/02 07:59:03;;;;;;;1.83;1.50;;;-2.00;86.90;;;;;;5072973;28;20988;-50
2022/03/02 08:01:35;;;;;;;2.30;1.97;;;-2.30;90.00;;;;;;5073021;28;20493;-51
2022/03/02 08:04:06;;;;;;;5.77;2.67;;;-2.50;90.80;;;;;;5072888;28;20476;-50
2022/03/02 08:06:36;;;;;;;3.63;2.27;;;-2.70;90.40;;;;;;5072524;28;20492;-49
2022/03/02 08:09:04;;;;;;;1.67;1.57;;;-2.60;89.30;;;;;;5071886;28;20445;-51
2022/03/02 08:11:33;;;;;;;1.47;1.30;;;-2.40;89.30;;;;;;5072060;28;20495;-50
2022/03/02 08:14:00;;;;;;;6.63;5.57;;;-2.20;90.40;;;;;;5071937;28;20445;-49
2022/03/02 08:16:28;;;;;;;10.10;5.37;;;-1.90;90.80;;;;;;5071945;28;20470;-51
2022/03/02 08:18:57;;;;;;;8.67;5.20;;;-1.60;90.80;;;;;;5071830;28;20530;-49
2022/03/02 08:21:24;;;;;;;5.50;3.40;;;-1.50;90.80;;;;;;5071839;28;20975;-49
2022/03/02 08:23:54;;;;;;;5.03;4.40;;;-1.30;90.70;;;;;;5071837;28;20471;-50
2022/03/02 08:26:24;;;;;;;8.67;5.90;;;-1.50;90.30;;;;;;5071727;28;20497;-50
2022/03/02 08:28:55;;;;;;;4.37;3.97;;;-1.40;90.50;;;;;;5071944;28;20472;-51
2022/03/02 08:31:23;;;;;;;9.03;3.80;;;-1.20;90.50;;;;;;5071902;28;20524;-50
2022/03/02 08:33:51;;;;;;;3.00;2.80;;;-1.10;90.50;;;;;;5072829;28;20439;-50
2022/03/02 08:36:21;;;;;;;2.47;2.20;;;-0.90;90.60;;;;;;5072583;28;20506;-50
2022/03/02 08:38:50;;;;;;;1.50;1.40;;;-0.90;90.20;;;;;;5072556;28;20978;-49
2022/03/02 08:41:19;;;;;;;2.13;1.00;;;-1.00;89.90;;;;;;5073096;28;20482;-49
2022/03/02 08:43:48;;;;;;;4.13;1.70;;;-1.40;88.80;;;;;;5073273;28;20515;-50
2022/03/02 08:46:15;;;;;;;1.33;1.20;;;-1.40;88.70;;;;;;5073535;28;20867;-51
2022/03/02 08:48:42;;;;;;;1.30;1.20;;;-1.30;88.20;;;;;;5073289;28;20508;-50
2022/03/02 08:51:10;;;;;;;2.53;1.20;;;-1.10;88.40;;;;;;5073113;28;20477;-51
2022/03/02 08:53:40;;;;;;;5.20;4.70;;;-1.00;88.70;;;;;;5072779;28;20466;-49
2022/03/02 08:56:08;;;;;;;12.30;6.60;;;-1.10;90.60;;;;;;5073105;28;20460;-51
2022/03/02 08:58:38;;;;;;;10.33;7.07;;;-1.00;91.60;;;;;;5073424;28;20467;-50
2022/03/02 09:01:05;;;;;;;7.97;7.17;;;-1.00;91.90;;;;;;5072705;28;20529;-50
2022/03/02 09:03:34;;;;;;;6.10;5.57;;;-0.70;92.40;;;;;;5072395;28;20507;-50
2022/03/02 09:06:04;;;;;;;11.00;5.40;;;-0.70;92.30;;;;;;5072698;28;20973;-59
2022/03/02 09:08:33;;;;;;;8.90;5.60;;;-0.60;91.90;;;;;;5073072;28;20471;-51
2022/03/02 09:11:02;;;;;;;9.40;5.27;;;-0.50;91.80;;;;;;5072777;28;20649;-50
2022/03/02 09:13:29;;;;;;;10.37;7.17;;;-0.60;92.20;;;;;;5072799;28;20876;-51
2022/03/02 09:15:57;;;;;;;10.63;6.77;;;-0.60;92.00;;;;;;5072988;28;20488;-50
2022/03/02 09:18:24;;;;;;;11.90;6.17;;;-0.80;92.10;;;;;;5073167;28;20469;-48
2022/03/02 09:20:57;;;;;;;6.87;4.30;;;-0.90;91.50;;;;;;5072952;28;20468;-48
2022/03/02 09:23:26;;;;;;;9.93;5.60;;;-0.90;91.20;;;;;;5072767;28;20481;-48
2022/03/02 09:25:54;;;;;;;13.30;5.70;;;-0.80;91.20;;;;;;5073235;28;20521;-48
2022/03/02 09:28:25;;;;;;;10.77;6.60;;;-0.70;91.40;;;;;;5072960;28;20472;-48
2022/03/02 09:30:54;;;;;;;13.17;6.80;;;-0.60;91.40;;;;;;5072658;28;20479;-49
2022/03/02 09:33:24;;;;;;;6.90;4.33;;;-0.30;90.90;;;;;;5072772;28;20460;-48
2022/03/02 09:35:53;;;;;;;11.13;5.50;;;-0.10;90.50;;;;;;5072581;28;20500;-49
2022/03/02 09:38:22;;;;;;;5.97;4.70;;;0.00;90.10;;;;;;5072658;28;20472;-49
2022/03/02 09:40:51;;;;;;;6.93;4.73;;;0.00;90.90;;;;;;5074850;28;20499;-49
2022/03/02 09:43:19;;;;;;;7.93;3.77;;;0.30;91.30;;;;;;5075834;28;20575;-50
2022/03/02 09:45:50;;;;;;;3.47;3.27;;;0.60;90.70;;;;;;5076029;28;20460;-49
2022/03/02 09:48:30;;;;;;;2.60;2.37;;;0.90;90.00;;;;;;5076261;28;20451;-50
2022/03/02 09:51:00;;;;;;;3.97;3.63;;;1.20;88.10;;;;;;5075829;28;20941;-49
2022/03/02 09:53:29;;;;;;;6.33;3.13;;;1.40;87.20;;;;;;5075913;28;20472;-50
2022/03/02 09:55:58;;;;;;;3.30;2.63;;;1.60;85.90;;;;;;5076432;28;20488;-50
2022/03/02 09:58:27;;;;;;;3.10;2.80;;;1.80;83.70;;;;;;5076450;28;20549;-49
2022/03/02 10:00:58;;;;;;;6.23;4.10;;;1.90;81.80;;;;;;5076394;28;20529;-49
2022/03/02 10:03:27;;;;;;;4.57;3.10;;;2.00;84.40;;;;;;5076064;28;21005;-50
2022/03/02 10:05:54;;;;;;;3.60;3.30;;;2.20;85.60;;;;;;5076250;28;21023;-49
2022/03/02 10:08:24;;;;;;;5.23;4.37;;;2.30;85.80;;;;;;5075806;28;20517;-50
2022/03/02 10:10:51;;;;;;;3.20;2.97;;;2.50;84.40;;;;;;5076005;28;20962;-49
2022/03/02 10:13:19;;;;;;;9.60;3.70;;;2.40;85.40;;;;;;5076665;28;20480;-49
2022/03/02 10:15:46;;;;;;;6.40;3.70;;;2.10;83.40;;;;;;5075988;28;20462;-50
2022/03/02 10:18:16;;;;;;;5.40;4.00;;;2.00;80.50;;;;;;5076705;28;20468;-49
2022/03/02 10:20:49;;;;;;;4.60;3.63;;;1.90;82.00;;;;;;5076125;28;20444;-49
2022/03/02 10:23:36;;;;;;;4.00;3.50;;;1.80;83.70;;;;;;5076503;28;20856;-49
2022/03/02 10:26:18;;;;;;;7.83;4.23;;;1.90;83.30;;;;;;5076139;28;20488;-49
2022/03/02 10:28:56;;;;;;;3.50;3.20;;;1.80;82.60;;;;;;5076823;28;20496;-49
2022/03/02 10:31:41;;;;;;;3.40;2.97;;;1.80;82.30;;;;;;5076434;28;20444;-51
2022/03/02 10:34:30;;;;;;;3.10;2.60;;;1.80;79.60;;;;;;5076459;28;20441;-50
2022/03/02 10:37:05;;;;;;;2.57;2.37;;;1.90;77.50;;;;;;5076300;28;20483;-50
2022/03/02 10:39:49;;;;;;;3.67;2.57;;;2.00;77.30;;;;;;5076361;28;20453;-51
2022/03/02 10:42:21;;;;;;;3.57;2.53;;;2.10;74.80;;;;;;5076630;28;20449;-50
2022/03/02 10:45:10;;;;;;;6.20;2.67;;;2.20;75.90;;;;;;5076549;28;20507;-50
2022/03/02 10:47:43;;;;;;;3.10;2.43;;;2.40;75.20;;;;;;5062832;28;20473;-50
2022/03/02 10:50:13;;;;;;;2.60;2.33;;;2.50;75.20;;;;;;5075535;28;20959;-50
2022/03/02 10:52:41;;;;;;;2.30;2.10;;;2.60;75.80;;;;;;5075487;28;20447;-49
2022/03/02 10:55:10;;;;;;;2.23;1.60;;;2.70;72.30;;;;;;5075684;28;20498;-49
2022/03/02 10:57:38;;;;;;;1.80;1.70;;;2.70;68.10;;;;;;5076026;28;20488;-50
2022/03/02 11:00:11;;;;;;;1.70;1.60;;;2.90;66.90;;;;;;5075919;28;20467;-51
2022/03/02 11:02:41;;;;;;;2.40;2.03;;;3.00;67.50;;;;;;5075436;28;20530;-50
2022/03/02 11:05:13;;;;;;;2.97;2.07;;;3.10;69.70;;;;;;5075389;28;20477;-51
2022/03/02 11:07:41;;;;;;;18.90;4.13;;;3.30;68.50;;;;;;5075724;28;20451;-50
2022/03/02 11:10:11;;;;;;;4.80;2.40;;;3.20;68.90;;;;;;5075781;28;20438;-51
2022/03/02 11:12:42;;;;;;;4.50;2.73;;;3.20;66.90;;;;;;5075479;28;20472;-50
2022/03/02 11:15:10;;;;;;;2.37;2.10;;;3.30;70.00;;;;;;5075729;28;20837;-50
2022/03/02 11:17:39;;;;;;;3.97;2.20;;;3.40;71.00;;;;;;5075211;28;20873;-50
2022/03/02 11:20:08;;;;;;;2.20;2.10;;;3.40;69.40;;;;;;5074890;28;20451;-51
2022/03/02 11:22:38;;;;;;;3.20;2.50;;;3.30;70.00;;;;;;5074573;28;20480;-51
2022/03/02 11:25:06;;;;;;;2.97;2.47;;;3.30;69.40;;;;;;5074300;28;20901;-50
2022/03/02 11:27:39;;;;;;;7.10;4.30;;;3.50;74.10;;;;;;5074534;28;20500;-52
2022/03/02 11:30:10;;;;;;;6.67;3.83;;;3.70;72.90;;;;;;5074628;28;20473;-50
2022/03/02 11:32:39;;;;;;;3.67;3.00;;;3.80;73.20;;;;;;5071589;28;20470;-52
2022/03/02 11:35:09;;;;;;;4.53;2.90;;;3.90;74.60;;;;;;5069198;28;20575;-51
2022/03/02 11:37:38;;;;;;;3.33;2.23;;;3.90;78.60;;;;;;5071996;28;20511;-50
2022/03/02 11:40:07;;;;;;;2.90;2.50;;;3.80;75.20;;;;;;5072778;28;20901;-51
2022/03/02 11:42:38;;;;;;;3.00;2.80;;;3.80;73.20;;;;;;5073698;28;20480;-52
2022/03/02 11:45:06;;;;;;;4.00;2.57;;;3.70;76.10;;;;;;5073948;28;20484;-49
2022/03/02 11:47:35;;;;;;;3.83;2.20;;;3.80;80.80;;;;;;5073750;28;20499;-51
2022/03/02 11:50:03;;;;;;;3.90;2.83;;;4.00;79.70;;;;;;5072494;28;20467;-51
2022/03/02 11:52:32;;;;;;;4.67;2.80;;;4.10;76.20;;;;;;5072415;28;20539;-52
2022/03/02 11:55:05;;;;;;;4.00;2.20;;;4.20;71.50;;;;;;5072517;28;20463;-50
2022/03/02 11:57:39;;;;;;;4.27;2.07;;;4.20;75.20;;;;;;5072937;28;20933;-51
2022/03/02 12:00:15;;;;;;;2.70;2.30;;;4.30;77.30;;;;;;5073380;28;20537;-50
2022/03/02 12:02:44;;;;;;;2.43;2.23;;;4.50;78.80;;;;;;5072759;28;20475;-50
2022/03/02 12:05:11;;;;;;;4.60;2.80;;;4.50;73.90;;;;;;5073528;28;20905;-51
2022/03/02 12:07:40;;;;;;;3.07;2.87;;;4.40;68.20;;;;;;5072959;28;20852;-50
2022/03/02 12:10:17;;;;;;;2.43;2.10;;;4.40;77.70;;;;;;5073990;28;20477;-51
2022/03/02 12:12:44;;;;;;;2.50;2.23;;;4.40;70.60;;;;;;5072778;28;20903;-51
2022/03/02 12:15:11;;;;;;;2.40;2.20;;;4.70;71.10;;;;;;5071678;28;20494;-51
2022/03/02 12:17:39;;;;;;;2.73;2.53;;;4.70;64.60;;;;;;5072792;28;20865;-51
2022/03/02 12:20:09;;;;;;;5.07;2.37;;;4.70;68.10;;;;;;5072946;28;20483;-51
2022/03/02 12:22:39;;;;;;;4.23;3.20;;;4.70;66.80;;;;;;5073298;28;20446;-51
2022/03/02 12:25:08;;;;;;;4.10;2.33;;;4.80;69.10;;;;;;5073089;28;21027;-51
2022/03/02 12:27:37;;;;;;;7.70;2.80;;;4.80;67.10;;;;;;5073241;28;20509;-51
2022/03/02 12:30:07;;;;;;;6.17;2.70;;;4.90;71.20;;;;;;5073709;28;20474;-51
2022/03/02 12:32:35;;;;;;;3.40;2.47;;;5.00;75.40;;;;;;5072917;28;20446;-51
2022/03/02 12:35:05;;;;;;;3.90;2.47;;;5.10;74.30;;;;;;5073888;28;20980;-51
2022/03/02 12:37:33;;;;;;;3.07;2.47;;;5.20;72.30;;;;;;5072937;28;20816;-52
2022/03/02 12:40:00;;;;;;;2.40;2.20;;;5.30;72.20;;;;;;5072876;28;20593;-52
2022/03/02 12:42:27;;;;;;;5.83;2.50;;;5.40;72.40;;;;;;5073182;28;20478;-52
2022/03/02 12:44:57;;;;;;;2.30;2.10;;;5.50;74.50;;;;;;5074239;28;20522;-53
2022/03/02 12:47:26;;;;;;;2.67;2.03;;;5.40;77.20;;;;;;5073234;28;20478;-53
2022/03/02 12:49:55;;;;;;;4.17;2.53;;;5.30;73.70;;;;;;5073134;28;20495;-53
2022/03/02 12:52:24;;;;;;;2.93;2.30;;;5.20;76.50;;;;;;5073836;28;20983;-52
2022/03/02 12:54:52;;;;;;;3.87;2.37;;;5.30;79.30;;;;;;5073235;28;20930;-54